x

South Hecate Strait (46185) Wave Buoy

8:00am - Mon 22nd Sep 2014 All times are PDT. -7 hours from GMT.

  • Sig Wave height 3.9ft
  • Peak Period 9s
  • Wind
    4mph
  • Sea Temp 55°f
  • Air Temp 57°f
  • Sea Pressure 1012.1mb
  • South Hecate Strait
  • South Hecate Strait

More Historic Weather Station data

Upgrade to MSW Pro to gain access to the past 30 days of data for over 8000 Wavebouys and Weather Stations around the globe.

Join Pro

Comparision Forecast

View Surf forecast
   
Mon 09/22 8:00am 4ft 9s 4
mph
1012.1mb 55f 57f
7:00am 3.5ft 9s 4
mph
1012mb 55f 56f
6:00am 3.5ft 9s 4
mph
1011.8mb 55f 56f
5:00am 4ft 8s 7
mph
1011.1mb 56f 56f
4:00am 4ft 6s 7 9 mph 1010.9mb 55f 57f
3:00am 4ft 9s 7 9 mph 1010.7mb 56f 57f
2:00am 4.5ft 7s 9
mph
1010.1mb 56f 57f
1:00am 4.5ft 7s 7 9 mph 1009.8mb 56f 56f
12:00am 4.5ft 6s 7
mph
1009.5mb 56f 56f
Sun 09/21 11:00pm 4.5ft 7s 7 9 mph 1008.9mb 56f 56f
10:00pm 5ft 10s 4 7 mph 1008.6mb 56f 56f
9:00pm 5ft 6s 7 9 mph 1008.2mb 56f 56f
8:00pm 4.5ft 6s 9 11 mph 1007.9mb 55f 56f
7:00pm 5ft 6s 7 9 mph 1007.2mb 55f 57f
6:00pm  -   -  7
mph
1031.9mb - -
5:00pm 4.5ft 15s 16 20 mph 1006.9mb 55f 58f
4:00pm 4ft 10s 20 22 mph 1005.9mb 55f 58f
3:00pm 3.5ft 10s 18 22 mph 1005.5mb 55f 59f
2:00pm 4ft 14s 18 20 mph 1005.2mb 55f 59f
1:00pm 3.5ft 14s 16 18 mph 1005.5mb 55f 59f
12:00pm 3.5ft 15s 13
mph
1005.6mb 55f 58f
11:00am 4ft 15s 13 16 mph 1005.6mb 55f 58f
10:00am 3.5ft 14s 13 18 mph 1005.6mb 55f 58f
9:00am 3.5ft 10s 13 16 mph 1005.5mb 56f 58f
8:00am 3.5ft 14s 13 16 mph 1005.5mb 55f 57f
7:00am 3.5ft 15s 13
mph
1005.4mb 55f 57f
6:00am 3.5ft 15s 11 13 mph 1005.9mb 55f 57f
5:00am 3.5ft 15s 7 9 mph 1006.4mb 55f 57f
4:00am 3ft 15s 2 4 mph 1007.2mb 55f 56f
3:00am 3.5ft 15s 2
mph
1007.5mb 55f 56f
2:00am 3.5ft 15s 4
mph
1008mb 56f 57f
1:00am 3.5ft 15s 2
mph
1008.9mb 56f 57f
12:00am 3.5ft 14s 2
mph
1009.6mb 56f 57f
Sat 09/20 11:00pm 4ft 15s 2 4 mph 1010.2mb 56f 57f
10:00pm 4ft 15s 4 9 mph 1011.1mb 56f 57f
9:00pm 3.5ft 16s 2 4 mph 1011.8mb 57f 57f
8:00pm 4ft 15s 4
mph
1012.8mb 57f 57f
7:00pm 4.5ft 8s 7 9 mph 1013.7mb 57f 57f
6:00pm 4ft 14s 7
mph
1015.4mb 57f 58f
5:00pm 4.5ft 15s 7
mph
1016.4mb 56f 58f
4:00pm 4.5ft 15s 11 13 mph 1017.2mb 56f 58f
3:00pm 4.5ft 7s 13 18 mph 1017.6mb 56f 58f
2:00pm 5ft 7s 13 16 mph 1018.1mb 55f 58f
1:00pm 5.5ft 7s 18 20 mph 1018.2mb 55f 58f
12:00pm 6ft 7s 20 25 mph 1018.3mb 55f 58f
11:00am 7ft 7s 20 22 mph 1018.3mb 55f 58f
10:00am 6.5ft 6s 22 29 mph 1018.1mb 55f 58f
9:00am 7ft 7s 25 31 mph 1017.7mb 55f 58f
8:00am 6.5ft 7s 25 29 mph 1017.3mb 55f 58f
7:00am 6.5ft 6s 25 31 mph 1017.3mb 55f 58f
6:00am 6ft 6s 22 27 mph 1017.3mb 55f 58f
5:00am 5.5ft 5s 25 29 mph 1017.3mb 55f 59f
4:00am 5.5ft 16s 25 29 mph 1017.2mb 55f 58f
3:00am 5ft 15s 22 27 mph 1017.3mb 55f 59f
2:00am 4.5ft 16s 20 22 mph 1017.5mb 55f 58f
1:00am 5ft 16s 22 25 mph 1017.2mb 55f 58f
12:00am 4.5ft 14s 18 20 mph 1017.6mb 55f 57f
Fri 09/19 11:00pm 4.5ft 16s 18 22 mph 1017.5mb 55f 58f
10:00pm 4.5ft 16s 13 16 mph 1018.3mb 55f 58f
9:00pm 4.5ft 12s 13 16 mph 1018.3mb 55f 58f
8:00pm 4.5ft 16s 13 16 mph 1018.2mb 56f 58f
7:00pm 4.5ft 16s 11 13 mph 1018.1mb 55f 58f
6:00pm 4.5ft 16s 11 13 mph 1018.2mb 55f 57f
5:00pm 4.5ft 16s 11 13 mph 1018.2mb 55f 58f
4:00pm 4.5ft 16s 9 11 mph 1018.5mb 55f 58f
3:00pm 4ft 16s 9 11 mph 1018.1mb 55f 58f
2:00pm 4.5ft 17s 11
mph
1017.7mb 55f 57f
1:00pm 4.5ft 17s 11 13 mph 1017.4mb 55f 58f
12:00pm 5ft 16s 11 13 mph 1016.6mb 55f 58f
11:00am 5.5ft 10s 13 16 mph 1015.4mb 55f 58f
10:00am 6ft 9s 13 16 mph 1014.8mb 55f 58f
9:00am 5.5ft 16s 16 18 mph 1014mb 56f 58f
8:00am 5.5ft 16s 16 18 mph 1013.3mb 56f 58f
7:00am 5.5ft 17s 16 18 mph 1012.1mb 56f 58f
6:00am 5ft 16s 13 16 mph 1011.8mb 55f 58f
5:00am 5ft 8s 16 18 mph 1010.8mb 55f 58f
4:00am 5ft 17s 16 20 mph 1010.5mb 55f 58f
3:00am 5ft 17s 13 16 mph 1010.1mb 56f 58f
2:00am 5ft 17s 16 20 mph 1009.2mb 55f 58f
1:00am 5ft 17s 13 16 mph 1008.3mb 55f 58f
12:00am 5ft 17s 11 13 mph 1007.5mb 55f 58f
Thu 09/18 11:00pm 5.5ft 17s 13 16 mph 1006.5mb 55f 58f
10:00pm 5.5ft 17s 16 18 mph 1005.5mb 56f 58f
9:00pm 6ft 7s 13 16 mph 1004.6mb 56f 59f
8:00pm 6ft 17s 16 18 mph 1003.2mb 56f 59f
7:00pm 7ft 7s 20 22 mph 1002.6mb 56f 59f
6:00pm 7ft 7s 20 25 mph 1001.6mb 56f 59f